Time;durP1;ratioP1;P1;durP2;ratioP2;P2;SDS_P1;SDS_P2;PMS_P1;PMS_P2;Temp;Humidity;BMP_temperature;BMP_pressure;BME280_temperature;BME280_humidity;BME280_pressure;Samples;Min_cycle;Max_cycle;Signal;HPM_P1;HPM_P2
2023/03/07 00:00:32;;;;;;;2.50;2.30;;;1.10;97.30;;;;;;5034290;28;20486;-83
2023/03/07 00:03:13;;;;;;;8.90;3.40;;;1.10;97.30;;;;;;5019754;28;20471;-83
2023/03/07 00:06:20;;;;;;;6.97;4.80;;;1.10;97.30;;;;;;5017978;28;20441;-83
2023/03/07 00:09:02;;;;;;;14.73;3.10;;;1.20;97.30;;;;;;5016601;28;20477;-83
2023/03/07 00:11:33;;;;;;;3.33;3.13;;;1.20;97.30;;;;;;5018835;28;20481;-83
2023/03/07 00:14:14;;;;;;;4.90;2.07;;;1.20;97.30;;;;;;5013111;28;20519;-83
2023/03/07 00:16:50;;;;;;;3.97;3.53;;;1.30;97.30;;;;;;5014629;28;20427;-83
2023/03/07 00:19:21;;;;;;;4.97;3.43;;;1.30;97.30;;;;;;5009988;28;20971;-84
2023/03/07 00:21:52;;;;;;;6.60;3.17;;;1.30;97.30;;;;;;5005731;28;20466;-84
2023/03/07 00:24:21;;;;;;;5.17;4.63;;;1.30;97.30;;;;;;5006398;28;20431;-85
2023/03/07 00:27:03;;;;;;;;;;;;;;;;;;;;;
2023/03/07 00:29:42;;;;;;;6.67;3.20;;;1.30;97.30;;;;;;5026675;28;20502;-83
2023/03/07 00:32:33;;;;;;;;;;;;;;;;;;;;;
2023/03/07 00:35:52;;;;;;;3.50;2.67;;;1.40;97.30;;;;;;4955308;28;20469;-84
2023/03/07 00:38:41;;;;;;;1.77;1.67;;;1.40;97.30;;;;;;5017201;28;20421;-82
2023/03/07 00:41:20;;;;;;;24.50;4.53;;;1.40;97.30;;;;;;5010591;28;20424;-83
2023/03/07 00:43:48;;;;;;;9.10;2.93;;;1.50;97.30;;;;;;5009573;28;20472;-83
2023/03/07 00:46:19;;;;;;;2.63;2.43;;;1.50;97.30;;;;;;5008151;28;20416;-84
2023/03/07 00:48:52;;;;;;;12.53;3.80;;;1.50;97.30;;;;;;5016554;28;21018;-84
2023/03/07 00:51:19;;;;;;;5.87;2.33;;;1.60;97.30;;;;;;5016027;28;20423;-84
2023/03/07 00:53:52;;;;;;;6.30;3.20;;;1.60;97.30;;;;;;5008950;28;20451;-85
2023/03/07 00:56:20;;;;;;;2.70;2.23;;;1.60;97.30;;;;;;5014311;28;20426;-83
2023/03/07 00:58:46;;;;;;;7.43;3.53;;;1.60;97.30;;;;;;5009738;28;20424;-84
2023/03/07 01:01:14;;;;;;;4.23;3.97;;;1.60;97.30;;;;;;5011214;28;20502;-83
2023/03/07 01:03:40;;;;;;;4.73;3.23;;;1.60;97.30;;;;;;5011010;28;20212;-84
2023/03/07 01:06:09;;;;;;;9.50;4.57;;;1.60;97.30;;;;;;5012483;28;20416;-84
2023/03/07 01:08:35;;;;;;;3.27;2.43;;;1.60;97.30;;;;;;5009017;28;20419;-85
2023/03/07 01:11:02;;;;;;;5.87;4.23;;;1.70;97.30;;;;;;5007427;28;20430;-84
2023/03/07 01:13:28;;;;;;;4.43;2.90;;;1.70;97.30;;;;;;5011079;28;20601;-85
2023/03/07 01:15:54;;;;;;;3.30;3.10;;;1.70;97.30;;;;;;5014779;28;20426;-84
2023/03/07 01:18:20;;;;;;;6.40;3.70;;;1.70;97.30;;;;;;5020211;28;20594;-83
2023/03/07 01:21:14;;;;;;;6.33;5.97;;;1.70;97.30;;;;;;5019834;28;20689;-84
2023/03/07 01:23:52;;;;;;;4.70;4.40;;;1.70;97.30;;;;;;5033146;28;20204;-84
2023/03/07 01:26:34;;;;;;;8.63;2.87;;;1.70;97.30;;;;;;5019352;28;20411;-85
2023/03/07 01:29:11;;;;;;;2.70;2.50;;;1.70;97.30;;;;;;5008756;28;20493;-85
2023/03/07 01:31:43;;;;;;;6.50;5.13;;;1.70;97.30;;;;;;5011066;28;20453;-84
2023/03/07 01:34:12;;;;;;;3.57;2.70;;;1.70;97.30;;;;;;5011074;28;20477;-85
2023/03/07 01:36:43;;;;;;;6.20;3.13;;;1.70;97.30;;;;;;5014657;28;20410;-83
2023/03/07 01:39:21;;;;;;;3.83;3.03;;;1.70;97.30;;;;;;5007119;28;20449;-84
2023/03/07 01:41:50;;;;;;;4.83;3.23;;;1.70;97.30;;;;;;5010437;28;20465;-85
2023/03/07 01:44:21;;;;;;;5.30;4.23;;;1.70;97.30;;;;;;5006749;28;20435;-86
2023/03/07 01:46:51;;;;;;;2.60;2.40;;;1.70;97.30;;;;;;5011032;28;20839;-85
2023/03/07 01:49:31;;;;;;;6.50;3.77;;;1.70;97.30;;;;;;5013771;28;20423;-84
2023/03/07 01:52:03;;;;;;;10.40;3.60;;;1.70;97.30;;;;;;5007609;28;20429;-85
2023/03/07 01:54:31;;;;;;;3.80;3.33;;;1.80;97.30;;;;;;5012629;28;20434;-83
2023/03/07 01:56:57;;;;;;;4.40;3.87;;;1.80;97.30;;;;;;5015983;28;20597;-85
2023/03/07 01:59:37;;;;;;;3.53;3.33;;;1.80;97.30;;;;;;5007166;28;20950;-85
2023/03/07 02:02:08;;;;;;;3.60;3.40;;;1.80;97.30;;;;;;5012707;28;20554;-84
2023/03/07 02:05:00;;;;;;;11.23;6.50;;;1.80;97.30;;;;;;5017000;28;20527;-84
2023/03/07 02:07:31;;;;;;;4.83;3.70;;;1.80;97.30;;;;;;5005838;28;20439;-84
2023/03/07 02:09:58;;;;;;;4.80;4.50;;;1.90;97.30;;;;;;5008929;28;20782;-84
2023/03/07 02:12:26;;;;;;;7.70;3.40;;;1.90;97.30;;;;;;5016506;28;20419;-84
2023/03/07 02:14:52;;;;;;;8.70;5.17;;;1.90;97.30;;;;;;5019427;28;20477;-83
2023/03/07 02:17:18;;;;;;;3.00;2.80;;;1.90;97.30;;;;;;5019207;28;20639;-85
2023/03/07 02:20:22;;;;;;;3.93;2.83;;;1.90;97.30;;;;;;5006036;28;20183;-83
2023/03/07 02:22:48;;;;;;;4.73;4.43;;;2.00;97.30;;;;;;5012507;28;20227;-85
2023/03/07 02:25:26;;;;;;;4.30;4.10;;;2.00;97.30;;;;;;5012412;28;20515;-85
2023/03/07 02:27:55;;;;;;;5.83;4.10;;;2.00;97.30;;;;;;5005416;28;20447;-85
2023/03/07 02:30:21;;;;;;;2.53;2.33;;;2.10;97.30;;;;;;5011893;28;20424;-83
2023/03/07 02:32:47;;;;;;;2.30;2.17;;;2.10;97.30;;;;;;5018881;28;20790;-83
2023/03/07 02:35:16;;;;;;;4.67;4.37;;;2.10;97.30;;;;;;5013445;28;20470;-85
2023/03/07 02:37:45;;;;;;;3.67;2.03;;;2.20;97.30;;;;;;5033772;28;20195;-83
2023/03/07 02:40:11;;;;;;;4.30;3.53;;;2.20;97.30;;;;;;5019263;28;20481;-84
2023/03/07 02:42:40;;;;;;;15.00;3.90;;;2.20;97.30;;;;;;5013590;28;20466;-84
2023/03/07 02:45:11;;;;;;;5.63;3.17;;;2.20;97.30;;;;;;5031097;28;20400;-83
2023/03/07 02:47:37;;;;;;;3.33;3.03;;;2.20;97.30;;;;;;5007532;28;20419;-84
2023/03/07 02:50:04;;;;;;;5.10;4.80;;;2.30;97.30;;;;;;5007449;28;20430;-86
2023/03/07 02:52:30;;;;;;;2.87;2.67;;;2.30;97.30;;;;;;5006318;28;20457;-84
2023/03/07 02:54:57;;;;;;;4.93;4.37;;;2.30;97.30;;;;;;5014155;28;20424;-85
2023/03/07 02:57:23;;;;;;;7.33;4.47;;;2.30;97.30;;;;;;5008138;28;20467;-86
2023/03/07 02:59:48;;;;;;;3.90;3.67;;;2.30;97.30;;;;;;5005633;28;20427;-84
2023/03/07 03:02:14;;;;;;;3.40;3.20;;;2.40;97.30;;;;;;5003801;28;20231;-85
2023/03/07 03:04:40;;;;;;;3.13;2.97;;;2.40;97.30;;;;;;5015521;28;20311;-84
2023/03/07 03:07:05;;;;;;;13.43;3.20;;;2.30;97.30;;;;;;5004628;28;20180;-85
2023/03/07 03:09:31;;;;;;;3.10;2.90;;;2.40;97.30;;;;;;5015673;28;20246;-85
2023/03/07 03:11:57;;;;;;;3.77;3.60;;;2.40;97.30;;;;;;5012274;28;20207;-85
2023/03/07 03:14:22;;;;;;;4.87;3.17;;;2.40;97.30;;;;;;5029331;28;20239;-83
2023/03/07 03:16:48;;;;;;;1.97;1.87;;;2.40;97.30;;;;;;5010055;28;20420;-84
2023/03/07 03:19:14;;;;;;;5.50;3.83;;;2.40;97.30;;;;;;5005660;28;20189;-84
2023/03/07 03:21:39;;;;;;;2.80;2.30;;;2.40;97.30;;;;;;5009360;28;20194;-83
2023/03/07 03:24:06;;;;;;;3.17;2.97;;;2.40;97.30;;;;;;5031885;28;20205;-83
2023/03/07 03:26:33;;;;;;;2.30;1.60;;;2.50;97.30;;;;;;5017738;28;20180;-85
2023/03/07 03:28:59;;;;;;;3.00;2.80;;;2.50;97.30;;;;;;5006656;28;20427;-83
2023/03/07 03:31:27;;;;;;;2.40;2.20;;;2.50;97.30;;;;;;5036690;28;20418;-84
2023/03/07 03:33:53;;;;;;;11.80;3.23;;;2.50;97.30;;;;;;5016881;28;20483;-83
2023/03/07 03:36:19;;;;;;;5.87;4.13;;;2.50;97.30;;;;;;5011044;28;20943;-83
2023/03/07 03:38:45;;;;;;;5.50;3.47;;;2.50;97.30;;;;;;5014663;28;20176;-84
2023/03/07 03:41:12;;;;;;;12.20;4.87;;;2.50;97.30;;;;;;5012323;28;20731;-83
2023/03/07 03:43:38;;;;;;;7.23;4.70;;;2.60;97.30;;;;;;5013136;28;20208;-84
2023/03/07 03:46:03;;;;;;;6.13;2.90;;;2.60;97.30;;;;;;5019012;28;20469;-84
2023/03/07 03:48:29;;;;;;;3.23;3.03;;;2.60;97.30;;;;;;5010739;28;20177;-84
2023/03/07 03:51:03;;;;;;;6.33;3.50;;;2.60;97.30;;;;;;5009526;28;20173;-84
2023/03/07 03:53:29;;;;;;;1.70;1.60;;;2.60;97.30;;;;;;5007013;28;20450;-84
2023/03/07 03:56:13;;;;;;;2.30;2.10;;;2.60;97.30;;;;;;5036022;28;20429;-85
2023/03/07 03:58:39;;;;;;;4.53;2.53;;;2.60;97.30;;;;;;5015809;28;20470;-83
2023/03/07 04:01:08;;;;;;;8.60;2.70;;;2.60;97.30;;;;;;5006021;28;20429;-83
2023/03/07 04:03:35;;;;;;;6.03;3.30;;;2.60;97.30;;;;;;5015325;28;20585;-84
2023/03/07 04:06:06;;;;;;;5.17;3.50;;;2.60;97.30;;;;;;5016937;28;20407;-83
2023/03/07 04:08:33;;;;;;;4.70;4.40;;;2.60;97.30;;;;;;5008584;28;20407;-84
2023/03/07 04:10:59;;;;;;;3.43;3.27;;;2.60;97.30;;;;;;5026492;28;20430;-84
2023/03/07 04:13:25;;;;;;;3.10;2.93;;;2.60;97.30;;;;;;5015157;28;20445;-85
2023/03/07 04:15:53;;;;;;;11.00;5.67;;;2.60;97.30;;;;;;5015344;28;20415;-85
2023/03/07 04:18:19;;;;;;;11.03;7.07;;;2.60;97.30;;;;;;5009212;28;20431;-84
2023/03/07 04:20:46;;;;;;;2.30;1.93;;;2.60;97.30;;;;;;5028323;28;20423;-84
2023/03/07 04:23:11;;;;;;;2.80;2.60;;;2.60;97.30;;;;;;5008554;28;20490;-83
2023/03/07 04:25:37;;;;;;;8.23;4.50;;;2.60;97.30;;;;;;5029914;28;20434;-84
2023/03/07 04:28:03;;;;;;;5.43;4.23;;;2.60;97.30;;;;;;5028067;28;20230;-82
2023/03/07 04:30:28;;;;;;;2.53;2.33;;;2.60;97.30;;;;;;5015454;28;20650;-84
2023/03/07 04:32:54;;;;;;;8.63;3.67;;;2.60;97.30;;;;;;5009758;28;20200;-84
2023/03/07 04:35:19;;;;;;;2.17;2.00;;;2.60;97.30;;;;;;5008962;28;20260;-84
2023/03/07 04:37:45;;;;;;;2.93;2.40;;;2.60;97.30;;;;;;5030778;28;20541;-83
2023/03/07 04:40:10;;;;;;;3.33;3.13;;;2.60;97.30;;;;;;5026365;28;20176;-84
2023/03/07 04:42:36;;;;;;;3.73;3.43;;;2.60;97.30;;;;;;5024494;28;20666;-84
2023/03/07 04:45:02;;;;;;;11.93;3.80;;;2.60;97.30;;;;;;5011945;28;20420;-84
2023/03/07 04:47:28;;;;;;;14.37;3.50;;;2.60;97.30;;;;;;5006421;28;20169;-83
2023/03/07 04:49:53;;;;;;;3.30;3.10;;;2.60;97.30;;;;;;5004354;28;20186;-83
2023/03/07 04:52:18;;;;;;;37.83;3.53;;;2.60;97.30;;;;;;5015075;28;20199;-84
2023/03/07 04:54:44;;;;;;;4.57;3.60;;;2.70;97.30;;;;;;5014946;28;20206;-85
2023/03/07 04:57:10;;;;;;;2.90;2.70;;;2.70;97.30;;;;;;5004698;28;20689;-84
2023/03/07 04:59:38;;;;;;;2.50;1.60;;;2.70;97.30;;;;;;5010042;28;20172;-84
2023/03/07 05:02:05;;;;;;;4.07;3.20;;;2.70;97.30;;;;;;5019559;28;20218;-83
2023/03/07 05:04:31;;;;;;;3.57;3.37;;;2.70;97.30;;;;;;5013741;28;20446;-83
2023/03/07 05:06:56;;;;;;;3.60;2.70;;;2.80;97.30;;;;;;5012736;28;20466;-82
2023/03/07 05:09:22;;;;;;;3.73;3.53;;;2.80;97.30;;;;;;5015212;28;20185;-83
2023/03/07 05:11:47;;;;;;;12.20;5.50;;;2.80;97.30;;;;;;5010850;28;20196;-84
2023/03/07 05:14:13;;;;;;;2.60;2.17;;;2.80;97.30;;;;;;5022359;28;20205;-84
2023/03/07 05:16:38;;;;;;;3.10;1.67;;;2.80;97.30;;;;;;5014469;28;20179;-81
2023/03/07 05:19:04;;;;;;;3.90;3.70;;;2.80;97.30;;;;;;5010688;28;20177;-83
2023/03/07 05:21:30;;;;;;;2.33;2.13;;;2.80;97.30;;;;;;5022072;28;20575;-84
2023/03/07 05:23:55;;;;;;;1.80;1.70;;;2.80;97.30;;;;;;5005859;28;20236;-84
2023/03/07 05:26:21;;;;;;;2.53;2.33;;;2.90;97.30;;;;;;5016786;28;20566;-84
2023/03/07 05:28:46;;;;;;;3.47;2.97;;;2.90;97.30;;;;;;5021736;28;20173;-84
2023/03/07 05:31:12;;;;;;;3.20;3.03;;;2.90;97.30;;;;;;5011565;28;20264;-83
2023/03/07 05:33:41;;;;;;;5.13;3.83;;;2.90;97.30;;;;;;5009635;28;20226;-85
2023/03/07 05:36:07;;;;;;;2.80;1.70;;;2.90;97.30;;;;;;5018824;28;20173;-83
2023/03/07 05:38:33;;;;;;;2.20;1.80;;;2.90;97.30;;;;;;5015006;28;20427;-83
2023/03/07 05:40:58;;;;;;;3.17;1.77;;;2.90;97.30;;;;;;5011191;28;20415;-83
2023/03/07 05:43:24;;;;;;;4.87;2.30;;;2.90;97.30;;;;;;5021671;28;20396;-84
2023/03/07 05:45:49;;;;;;;1.87;1.77;;;2.90;97.30;;;;;;5012580;28;20192;-82
2023/03/07 05:48:15;;;;;;;3.70;2.40;;;2.90;97.30;;;;;;5015846;28;20205;-84
2023/03/07 05:50:41;;;;;;;2.57;2.37;;;2.90;97.30;;;;;;5018666;28;20298;-83
2023/03/07 05:53:07;;;;;;;1.97;1.87;;;2.90;97.30;;;;;;5018159;28;20559;-84
2023/03/07 05:55:33;;;;;;;2.13;1.97;;;2.90;97.30;;;;;;5012214;28;21126;-85
2023/03/07 05:57:58;;;;;;;2.73;2.57;;;2.90;97.30;;;;;;5010121;28;20184;-86
2023/03/07 06:00:24;;;;;;;7.83;4.20;;;3.00;97.30;;;;;;5009631;28;20487;-85
2023/03/07 06:02:50;;;;;;;2.43;2.23;;;3.00;97.30;;;;;;5012380;28;20587;-82
2023/03/07 06:05:15;;;;;;;2.77;2.60;;;3.00;97.30;;;;;;5014633;28;20617;-85
2023/03/07 06:07:41;;;;;;;3.47;1.80;;;3.00;97.30;;;;;;5009875;28;20201;-84
2023/03/07 06:10:07;;;;;;;2.40;1.63;;;3.00;97.30;;;;;;5021393;28;20267;-82
2023/03/07 06:12:33;;;;;;;1.77;1.67;;;3.00;97.30;;;;;;5010052;28;20187;-85
2023/03/07 06:14:58;;;;;;;3.23;2.40;;;3.10;97.30;;;;;;5024067;28;20415;-84
2023/03/07 06:17:24;;;;;;;3.23;2.63;;;3.10;97.30;;;;;;5026609;28;20619;-84
2023/03/07 06:19:50;;;;;;;2.40;2.20;;;3.10;97.30;;;;;;5016847;28;20180;-82
2023/03/07 06:22:16;;;;;;;1.37;1.37;;;3.10;97.30;;;;;;5032119;28;20216;-83
2023/03/07 06:24:41;;;;;;;1.90;1.80;;;3.10;97.30;;;;;;5012730;28;20554;-83
2023/03/07 06:27:07;;;;;;;2.20;1.73;;;3.10;97.30;;;;;;5024621;28;20180;-83
2023/03/07 06:29:32;;;;;;;2.60;2.40;;;3.20;97.30;;;;;;5015176;28;20183;-84
2023/03/07 06:31:58;;;;;;;2.40;2.20;;;3.20;97.30;;;;;;5019001;28;20554;-83
2023/03/07 06:34:24;;;;;;;1.83;1.73;;;3.20;97.30;;;;;;5016934;28;20638;-85
2023/03/07 06:36:49;;;;;;;1.83;1.73;;;3.30;97.30;;;;;;5016862;28;20426;-83
2023/03/07 06:39:19;;;;;;;1.73;1.63;;;3.30;97.30;;;;;;5006660;28;20219;-85
2023/03/07 06:41:52;;;;;;;2.50;2.03;;;3.30;97.30;;;;;;5013107;28;20195;-84
2023/03/07 06:44:18;;;;;;;2.47;2.23;;;3.40;97.30;;;;;;5008768;28;20431;-83
2023/03/07 06:46:44;;;;;;;1.77;1.67;;;3.40;97.30;;;;;;5013488;28;20430;-86
2023/03/07 06:49:12;;;;;;;2.67;2.10;;;3.40;97.30;;;;;;5030957;28;20912;-83
2023/03/07 06:51:43;;;;;;;2.47;2.27;;;3.40;97.30;;;;;;5031990;28;20450;-83
2023/03/07 06:54:12;;;;;;;1.77;1.67;;;3.40;97.30;;;;;;5010980;28;20806;-83
2023/03/07 06:56:44;;;;;;;1.93;1.87;;;3.50;97.30;;;;;;5011011;28;20550;-82
2023/03/07 06:59:12;;;;;;;3.30;3.10;;;3.50;97.30;;;;;;5011353;28;20440;-85
2023/03/07 07:01:41;;;;;;;2.17;2.00;;;3.50;97.30;;;;;;5021630;28;20431;-84
2023/03/07 07:04:22;;;;;;;2.00;1.53;;;3.50;97.30;;;;;;5012533;28;20474;-84
2023/03/07 07:06:52;;;;;;;2.60;2.40;;;3.50;97.30;;;;;;5014931;28;20431;-84
2023/03/07 07:09:21;;;;;;;1.83;1.73;;;3.60;97.30;;;;;;5017838;28;20423;-84
2023/03/07 07:11:56;;;;;;;1.30;1.20;;;3.60;97.30;;;;;;5017767;28;20501;-84
2023/03/07 07:14:22;;;;;;;1.17;1.07;;;3.70;97.30;;;;;;5012850;28;20446;-83
2023/03/07 07:16:50;;;;;;;3.43;2.03;;;3.70;97.30;;;;;;5011850;28;20431;-83
2023/03/07 07:19:15;;;;;;;2.80;2.23;;;3.70;97.30;;;;;;5007769;28;20181;-84
2023/03/07 07:21:41;;;;;;;1.63;1.53;;;3.70;97.30;;;;;;5016791;28;20966;-83
2023/03/07 07:24:09;;;;;;;4.10;1.70;;;3.70;97.30;;;;;;5013338;28;20235;-84
2023/03/07 07:26:35;;;;;;;2.03;1.90;;;3.80;97.30;;;;;;5008344;28;20177;-84
2023/03/07 07:29:00;;;;;;;2.30;1.67;;;3.80;97.30;;;;;;5011065;28;20431;-83
2023/03/07 07:31:26;;;;;;;1.67;1.57;;;3.80;97.30;;;;;;5011524;28;20179;-84
2023/03/07 07:33:51;;;;;;;2.40;2.20;;;3.90;97.30;;;;;;5016129;28;20232;-84
2023/03/07 07:36:17;;;;;;;2.27;2.10;;;3.90;97.30;;;;;;5024802;28;20192;-83
2023/03/07 07:38:42;;;;;;;4.20;2.30;;;3.90;97.30;;;;;;5012347;28;20187;-84
2023/03/07 07:41:09;;;;;;;2.07;1.93;;;3.90;97.30;;;;;;4986036;28;20204;-83
2023/03/07 07:43:35;;;;;;;1.93;1.87;;;4.00;97.30;;;;;;5011966;28;20550;-84
2023/03/07 07:46:03;;;;;;;1.67;1.57;;;4.00;97.30;;;;;;5009272;28;20203;-83
2023/03/07 07:48:30;;;;;;;2.00;1.90;;;4.00;97.30;;;;;;5013691;28;20186;-85
2023/03/07 07:50:59;;;;;;;2.43;1.77;;;4.10;97.30;;;;;;5014446;28;20441;-83
2023/03/07 07:53:25;;;;;;;4.07;2.40;;;4.10;97.30;;;;;;5003855;28;20443;-84
2023/03/07 07:55:50;;;;;;;1.53;1.30;;;4.20;97.30;;;;;;5015154;28;20469;-83
2023/03/07 07:58:16;;;;;;;1.50;1.40;;;4.20;97.30;;;;;;5016254;28;20180;-83
2023/03/07 08:00:41;;;;;;;2.70;2.13;;;4.30;97.30;;;;;;5008160;28;20176;-83
2023/03/07 08:03:07;;;;;;;1.17;1.07;;;4.30;97.30;;;;;;5008834;28;20707;-84
2023/03/07 08:05:32;;;;;;;1.10;1.00;;;4.30;97.30;;;;;;5015370;28;20594;-83
2023/03/07 08:07:57;;;;;;;1.83;1.73;;;4.40;97.30;;;;;;5003689;28;20177;-84
2023/03/07 08:10:23;;;;;;;1.37;1.23;;;4.40;97.30;;;;;;5004531;28;20173;-84
2023/03/07 08:12:50;;;;;;;1.63;1.50;;;4.40;97.30;;;;;;5002449;28;20244;-83
2023/03/07 08:15:16;;;;;;;1.37;1.27;;;4.50;97.30;;;;;;5003038;28;20177;-84
2023/03/07 08:17:43;;;;;;;1.20;1.10;;;4.50;97.30;;;;;;5005354;28;20934;-84
2023/03/07 08:20:09;;;;;;;1.93;1.53;;;4.50;97.30;;;;;;5011743;28;20451;-83
2023/03/07 08:22:36;;;;;;;1.10;1.00;;;4.50;97.30;;;;;;5013677;28;20462;-85
2023/03/07 08:25:03;;;;;;;12.90;1.47;;;4.60;97.30;;;;;;5010353;28;20427;-83
2023/03/07 08:27:29;;;;;;;1.50;1.40;;;4.60;97.30;;;;;;5041439;28;20412;-84
2023/03/07 08:29:55;;;;;;;1.83;1.73;;;4.60;97.30;;;;;;5025690;28;20442;-85
2023/03/07 08:32:20;;;;;;;2.30;2.10;;;4.70;97.30;;;;;;5015215;28;20423;-84
2023/03/07 08:34:46;;;;;;;1.30;1.20;;;4.80;97.30;;;;;;5023422;28;20550;-84
2023/03/07 08:37:11;;;;;;;3.73;3.10;;;4.80;97.30;;;;;;5044813;28;20667;-82
2023/03/07 08:39:37;;;;;;;1.37;1.27;;;4.90;97.30;;;;;;5043302;28;20186;-84
2023/03/07 08:42:05;;;;;;;1.60;1.27;;;4.90;97.30;;;;;;5030169;28;20177;-84
2023/03/07 08:44:34;;;;;;;1.37;1.33;;;5.00;97.30;;;;;;5025582;28;20207;-85
2023/03/07 08:47:02;;;;;;;6.47;1.20;;;5.00;97.30;;;;;;5028731;28;20438;-86
2023/03/07 08:49:30;;;;;;;1.10;1.00;;;5.10;97.30;;;;;;5042619;28;20419;-85
2023/03/07 08:51:56;;;;;;;2.77;1.73;;;5.10;97.30;;;;;;5034931;28;20425;-85
2023/03/07 08:54:26;;;;;;;2.50;1.63;;;5.20;97.30;;;;;;5042347;28;20473;-86
2023/03/07 08:56:54;;;;;;;2.37;1.40;;;5.20;97.30;;;;;;5035899;28;20180;-82
2023/03/07 08:59:22;;;;;;;1.00;0.90;;;5.20;97.30;;;;;;5034678;28;20430;-83
2023/03/07 09:02:02;;;;;;;2.33;1.73;;;5.30;97.30;;;;;;5032044;28;20419;-84
2023/03/07 09:04:30;;;;;;;6.20;2.10;;;5.30;97.30;;;;;;5017759;28;20439;-85
2023/03/07 09:06:58;;;;;;;3.13;1.60;;;5.30;97.30;;;;;;5019070;28;20411;-83
2023/03/07 09:09:24;;;;;;;4.87;3.17;;;5.40;97.30;;;;;;5018632;28;20406;-83
2023/03/07 09:12:14;;;;;;;2.23;2.03;;;5.40;97.30;;;;;;5017656;28;20411;-85
2023/03/07 09:15:15;;;;;;;1.53;1.00;;;5.40;97.30;;;;;;5016384;28;20663;-84
2023/03/07 09:17:44;;;;;;;1.90;1.40;;;5.40;97.30;;;;;;5020617;28;21009;-84
2023/03/07 09:20:24;;;;;;;1.00;0.90;;;5.40;97.30;;;;;;5019354;28;20929;-83
2023/03/07 09:23:03;;;;;;;2.60;1.40;;;5.50;97.30;;;;;;5017572;28;20466;-86
2023/03/07 09:25:35;;;;;;;2.13;1.97;;;5.50;97.30;;;;;;5017348;28;20913;-80
2023/03/07 09:28:04;;;;;;;2.93;1.83;;;5.60;97.30;;;;;;5017507;28;20498;-83
2023/03/07 09:30:34;;;;;;;4.40;3.40;;;5.60;97.30;;;;;;5018763;28;20690;-84
2023/03/07 09:33:03;;;;;;;1.53;1.43;;;5.70;97.30;;;;;;5019746;28;20515;-82
2023/03/07 09:35:34;;;;;;;4.67;2.80;;;5.80;97.30;;;;;;5022722;28;20474;-84
2023/03/07 09:38:03;;;;;;;2.67;2.23;;;5.90;97.30;;;;;;5027022;28;20979;-84
2023/03/07 09:40:34;;;;;;;5.67;3.33;;;5.90;97.30;;;;;;5028014;28;20426;-83
2023/03/07 09:43:17;;;;;;;5.70;4.43;;;5.90;97.30;;;;;;5024600;28;20470;-84
2023/03/07 09:46:04;;;;;;;1.20;0.97;;;6.00;97.30;;;;;;5025136;28;20419;-85
2023/03/07 09:48:58;;;;;;;1.40;1.30;;;6.00;97.30;;;;;;5026834;28;20435;-85
2023/03/07 09:51:35;;;;;;;1.93;1.40;;;6.00;97.30;;;;;;5018110;28;20473;-84
2023/03/07 09:54:23;;;;;;;2.33;1.50;;;6.00;97.30;;;;;;5016547;28;20443;-85
2023/03/07 09:56:57;;;;;;;2.60;2.40;;;6.00;97.30;;;;;;5025569;28;20454;-84
2023/03/07 09:59:43;;;;;;;2.20;2.00;;;6.00;97.30;;;;;;5019761;28;20427;-85
2023/03/07 10:02:30;;;;;;;2.07;1.40;;;6.10;97.30;;;;;;5018423;28;21066;-84
2023/03/07 10:05:17;;;;;;;3.37;2.20;;;6.10;97.30;;;;;;5012408;28;20422;-84
2023/03/07 10:07:43;;;;;;;2.13;1.30;;;6.10;97.30;;;;;;5026563;28;20418;-85
2023/03/07 10:10:19;;;;;;;5.60;2.77;;;6.10;97.30;;;;;;5009722;28;20822;-85
2023/03/07 10:12:53;;;;;;;1.63;1.53;;;6.10;97.30;;;;;;5028231;28;20216;-83
2023/03/07 10:15:36;;;;;;;1.97;1.90;;;6.00;97.30;;;;;;5032281;28;21259;-84
2023/03/07 10:18:09;;;;;;;2.17;2.00;;;6.10;97.30;;;;;;5016904;28;20435;-82
2023/03/07 10:20:43;;;;;;;11.23;2.47;;;6.10;97.30;;;;;;5020372;28;20424;-84
2023/03/07 10:23:46;;;;;;;1.80;1.70;;;6.10;97.30;;;;;;5030093;28;20481;-84
2023/03/07 10:26:19;;;;;;;7.60;2.67;;;6.10;97.30;;;;;;5032222;28;20435;-83
2023/03/07 10:28:47;;;;;;;3.00;2.80;;;6.10;97.30;;;;;;5025890;28;20896;-84
2023/03/07 10:31:27;;;;;;;1.53;1.43;;;6.10;97.30;;;;;;5017514;28;20446;-83
2023/03/07 10:33:54;;;;;;;3.57;1.60;;;6.10;97.30;;;;;;5015735;28;20470;-84
2023/03/07 10:36:20;;;;;;;3.10;1.90;;;6.10;97.30;;;;;;5045242;28;20809;-85
2023/03/07 10:38:56;;;;;;;1.83;1.73;;;6.10;97.30;;;;;;5036771;28;20419;-85
2023/03/07 10:41:22;;;;;;;6.63;3.50;;;6.10;97.30;;;;;;5018662;28;21035;-84
2023/03/07 10:43:50;;;;;;;4.77;2.10;;;6.10;97.30;;;;;;5019867;28;20811;-85
2023/03/07 10:46:26;;;;;;;5.30;3.43;;;6.10;97.30;;;;;;5010301;28;20184;-82
2023/03/07 10:49:00;;;;;;;2.40;2.20;;;6.10;97.30;;;;;;5027425;28;20945;-84
2023/03/07 10:51:58;;;;;;;5.40;3.10;;;6.10;97.30;;;;;;5019825;28;20411;-85
2023/03/07 10:54:32;;;;;;;2.70;2.40;;;6.00;97.30;;;;;;5013274;28;20462;-84
2023/03/07 10:57:08;;;;;;;1.97;1.27;;;5.90;97.30;;;;;;5017268;28;20415;-84
2023/03/07 10:59:36;;;;;;;2.00;1.90;;;5.80;97.30;;;;;;5017217;28;20472;-84
2023/03/07 11:02:16;;;;;;;8.27;3.57;;;5.80;97.30;;;;;;5020160;28;20415;-83
2023/03/07 11:04:44;;;;;;;3.33;3.13;;;5.80;97.30;;;;;;5016120;28;20439;-84
2023/03/07 11:07:29;;;;;;;3.23;3.03;;;5.80;97.30;;;;;;5028439;28;20427;-84
2023/03/07 11:09:56;;;;;;;2.60;2.50;;;5.70;97.30;;;;;;5016318;28;20419;-85
2023/03/07 11:12:24;;;;;;;4.60;3.60;;;5.70;97.30;;;;;;5014471;28;20423;-85
2023/03/07 11:14:53;;;;;;;1.63;1.57;;;5.70;97.30;;;;;;5027107;28;20432;-86
2023/03/07 11:17:23;;;;;;;2.93;2.07;;;5.70;97.30;;;;;;5008197;28;20431;-83
2023/03/07 11:19:53;;;;;;;3.80;2.20;;;5.70;97.30;;;;;;5025771;28;20451;-84
2023/03/07 11:22:32;;;;;;;2.00;1.57;;;5.70;97.30;;;;;;5009670;28;20461;-84
2023/03/07 11:25:11;;;;;;;2.70;2.60;;;5.80;97.30;;;;;;5019137;28;20418;-84
2023/03/07 11:27:46;;;;;;;3.70;2.27;;;5.90;97.30;;;;;;5029545;28;20422;-84
2023/03/07 11:30:21;;;;;;;3.07;2.87;;;6.00;97.30;;;;;;5019047;28;20436;-85
2023/03/07 11:33:06;;;;;;;5.83;2.40;;;6.00;97.30;;;;;;5042375;28;20431;-84
2023/03/07 11:35:45;;;;;;;3.90;3.70;;;6.20;97.30;;;;;;5014376;28;20484;-83
2023/03/07 11:38:39;;;;;;;2.40;2.20;;;6.30;97.30;;;;;;5039183;28;20478;-84
2023/03/07 11:41:31;;;;;;;5.23;2.13;;;6.40;97.30;;;;;;5016334;28;20804;-83
2023/03/07 11:44:19;;;;;;;6.73;2.00;;;6.40;97.30;;;;;;5014961;28;20467;-85
2023/03/07 11:47:02;;;;;;;1.77;1.40;;;6.50;97.30;;;;;;5024537;28;20501;-84
2023/03/07 11:50:00;;;;;;;1.60;1.50;;;6.50;97.30;;;;;;5031220;28;20437;-83
2023/03/07 11:52:51;;;;;;;1.73;1.60;;;6.60;97.30;;;;;;5031142;28;20514;-84
2023/03/07 11:55:55;;;;;;;1.97;1.77;;;6.60;97.30;;;;;;5047740;28;20422;-83
2023/03/07 11:58:49;;;;;;;4.37;2.40;;;6.60;97.30;;;;;;5027625;28;20415;-83
2023/03/07 12:01:26;;;;;;;1.40;1.30;;;6.70;97.30;;;;;;5023318;28;20471;-84
2023/03/07 12:04:30;;;;;;;1.50;1.40;;;6.70;96.80;;;;;;5016488;28;20477;-82
2023/03/07 12:07:18;;;;;;;2.30;1.57;;;6.80;97.20;;;;;;5024362;28;20423;-83
2023/03/07 12:10:25;;;;;;;19.63;1.80;;;6.80;97.30;;;;;;5016717;28;20462;-84
2023/03/07 12:13:15;;;;;;;1.77;1.67;;;6.80;96.50;;;;;;5020351;28;20446;-83
2023/03/07 12:15:57;;;;;;;1.90;1.80;;;6.90;96.80;;;;;;5013606;28;20455;-84
2023/03/07 12:18:45;;;;;;;1.10;1.00;;;6.90;96.90;;;;;;5007921;28;20580;-84
2023/03/07 12:21:52;;;;;;;1.23;1.17;;;6.80;97.00;;;;;;5015658;28;20419;-84
2023/03/07 12:24:24;;;;;;;6.90;3.30;;;6.90;97.20;;;;;;4991797;28;20979;-85
2023/03/07 12:26:54;;;;;;;3.10;2.90;;;6.90;97.30;;;;;;5013670;28;20479;-85
2023/03/07 12:29:45;;;;;;;1.70;1.60;;;6.90;97.30;;;;;;5015602;28;20419;-84
2023/03/07 12:32:31;;;;;;;4.23;2.90;;;6.90;97.10;;;;;;5012732;28;20431;-84
2023/03/07 12:34:59;;;;;;;5.47;2.37;;;6.90;97.00;;;;;;5016063;28;20613;-85
2023/03/07 12:37:36;;;;;;;2.63;2.40;;;6.90;96.70;;;;;;5014374;28;20422;-84
2023/03/07 12:40:12;;;;;;;1.83;1.73;;;6.90;96.70;;;;;;5027516;28;20414;-84
2023/03/07 12:42:49;;;;;;;2.87;1.60;;;6.90;96.60;;;;;;5026420;28;21042;-84
2023/03/07 12:45:50;;;;;;;2.60;2.07;;;6.90;96.60;;;;;;5025010;28;20405;-83
2023/03/07 12:48:23;;;;;;;3.27;2.53;;;6.90;96.50;;;;;;5026958;28;20828;-85
2023/03/07 12:50:53;;;;;;;1.43;1.30;;;7.00;95.90;;;;;;5017941;28;20426;-84
2023/03/07 12:53:36;;;;;;;1.80;1.73;;;7.00;95.50;;;;;;5018780;28;20462;-83
2023/03/07 12:56:23;;;;;;;4.73;3.07;;;7.00;94.20;;;;;;4999014;28;20412;-84
2023/03/07 12:58:57;;;;;;;3.70;2.03;;;7.10;94.50;;;;;;5031358;28;20431;-84
2023/03/07 13:01:27;;;;;;;2.33;1.97;;;7.10;94.80;;;;;;5011084;28;20422;-84
2023/03/07 13:03:59;;;;;;;14.27;2.30;;;7.10;95.10;;;;;;5000782;28;20474;-84
2023/03/07 13:06:25;;;;;;;17.23;4.37;;;7.10;95.00;;;;;;5008449;28;20502;-84
2023/03/07 13:08:55;;;;;;;3.63;1.73;;;7.10;95.00;;;;;;5020407;28;20470;-83
2023/03/07 13:11:23;;;;;;;9.93;2.47;;;7.10;94.90;;;;;;5016804;28;20414;-83
2023/03/07 13:13:53;;;;;;;1.53;1.43;;;7.10;94.40;;;;;;5015551;28;20478;-85
2023/03/07 13:16:35;;;;;;;2.60;1.90;;;7.10;93.40;;;;;;5018539;28;20468;-82
2023/03/07 13:19:35;;;;;;;4.87;2.03;;;7.10;93.10;;;;;;5021912;28;20439;-84
2023/03/07 13:22:02;;;;;;;1.30;1.20;;;7.10;93.10;;;;;;5011284;28;20960;-84